Time;durP1;ratioP1;P1;durP2;ratioP2;P2;SDS_P1;SDS_P2;PMS_P1;PMS_P2;Temp;Humidity;BMP_temperature;BMP_pressure;BME280_temperature;BME280_humidity;BME280_pressure;Samples;Min_cycle;Max_cycle;Signal;HPM_P1;HPM_P2
2022/08/27 00:01:07;;;;;;;2.17;2.10;;;;;;;19.12;99.74;95184.34;4375553;32;20184;-58
2022/08/27 00:03:33;;;;;;;1.47;1.37;;;;;;;19.12;99.69;95184.34;4373074;32;20193;-57
2022/08/27 00:05:59;;;;;;;1.20;1.20;;;;;;;19.20;99.51;95183.37;4364319;32;20193;-58
2022/08/27 00:08:24;;;;;;;1.60;1.60;;;;;;;19.26;98.13;95183.13;4373523;32;20204;-58
2022/08/27 00:10:50;;;;;;;1.60;1.53;;;;;;;19.18;98.88;95182.19;4372040;32;20340;-58
2022/08/27 00:13:15;;;;;;;1.43;1.43;;;;;;;19.09;99.16;95177.00;4346608;32;20201;-55
2022/08/27 00:15:40;;;;;;;2.20;2.00;;;;;;;19.07;99.10;95181.97;4368490;32;20215;-55
2022/08/27 00:18:06;;;;;;;2.13;2.03;;;;;;;19.11;99.08;95185.50;4354162;32;20193;-54
2022/08/27 00:20:33;;;;;;;4.73;2.23;;;;;;;19.12;98.49;95184.34;4356363;32;20196;-57
2022/08/27 00:22:58;;;;;;;2.30;1.90;;;;;;;19.16;98.04;95190.59;4359348;32;20200;-58
2022/08/27 00:25:24;;;;;;;1.30;1.30;;;;;;;19.13;98.27;95191.28;4352925;32;20185;-57
2022/08/27 00:27:50;;;;;;;1.83;1.73;;;;;;;19.11;99.06;95190.13;4346735;32;20279;-58
2022/08/27 00:30:17;;;;;;;1.97;1.70;;;;;;;19.19;98.52;95195.28;4366752;32;20207;-58
2022/08/27 00:32:43;;;;;;;4.60;2.60;;;;;;;19.13;99.09;95202.06;4366949;32;20193;-56
2022/08/27 00:35:09;;;;;;;1.83;1.73;;;;;;;19.09;99.66;95211.97;4344867;32;20201;-57
2022/08/27 00:37:35;;;;;;;1.83;1.73;;;;;;;18.86;100.00;95219.91;4345656;32;20188;-54
2022/08/27 00:40:01;;;;;;;2.10;2.00;;;;;;;18.57;100.00;95211.44;4366137;32;20231;-58
2022/08/27 00:42:26;;;;;;;2.30;2.10;;;;;;;18.54;100.00;95216.38;4376344;32;20201;-57
2022/08/27 00:44:52;;;;;;;4.47;2.87;;;;;;;18.54;100.00;95208.31;4363988;32;20188;-57
2022/08/27 00:47:23;;;;;;;2.33;2.23;;;;;;;18.48;100.00;95212.41;4351525;32;20193;-57
2022/08/27 00:49:57;;;;;;;2.47;2.37;;;;;;;18.55;100.00;95215.25;4371587;32;20185;-56
2022/08/27 00:52:54;;;;;;;2.33;2.23;;;;;;;18.61;100.00;95209.66;4359725;32;20185;-58
2022/08/27 00:55:23;;;;;;;1.77;1.77;;;;;;;18.37;100.00;95203.28;4361362;32;20199;-55
2022/08/27 00:58:00;;;;;;;1.90;1.80;;;;;;;18.48;100.00;95201.66;4346434;32;20295;-55
2022/08/27 01:00:26;;;;;;;2.23;2.03;;;;;;;18.27;100.00;95203.81;4364274;32;20226;-56
2022/08/27 01:02:51;;;;;;;1.47;1.47;;;;;;;18.31;100.00;95199.28;4358549;32;20201;-55
2022/08/27 01:05:20;;;;;;;1.80;1.70;;;;;;;18.25;100.00;95200.69;4354175;32;20200;-58
2022/08/27 01:07:50;;;;;;;4.17;3.13;;;;;;;18.37;100.00;95191.75;4371486;32;20216;-56
2022/08/27 01:10:20;;;;;;;2.30;2.20;;;;;;;18.39;100.00;95189.53;4353242;32;20224;-57
2022/08/27 01:12:46;;;;;;;2.00;1.90;;;;;;;18.59;100.00;95193.88;4345544;32;20189;-57
2022/08/27 01:15:15;;;;;;;1.60;1.60;;;;;;;18.61;100.00;95185.47;4363298;32;20193;-56
2022/08/27 01:17:43;;;;;;;2.20;2.10;;;;;;;18.74;100.00;95186.94;4366008;32;20215;-58
2022/08/27 01:20:16;;;;;;;5.63;2.67;;;;;;;18.83;100.00;95177.56;4363446;32;20200;-56
2022/08/27 01:23:00;;;;;;;1.37;1.37;;;;;;;18.77;100.00;95186.25;4370854;32;20201;-57
2022/08/27 01:25:27;;;;;;;1.93;1.83;;;;;;;18.77;100.00;95188.94;4364551;32;20192;-57
2022/08/27 01:27:57;;;;;;;2.37;2.27;;;;;;;18.74;100.00;95184.25;4358865;32;20241;-55
2022/08/27 01:30:23;;;;;;;5.20;2.93;;;;;;;18.79;100.00;95190.16;4350196;32;20210;-58
2022/08/27 01:32:49;;;;;;;1.43;1.43;;;;;;;18.70;100.00;95186.09;4364384;32;20193;-55
2022/08/27 01:35:16;;;;;;;2.80;2.70;;;;;;;18.83;100.00;95182.94;4350961;32;20203;-57
2022/08/27 01:37:45;;;;;;;2.10;2.00;;;;;;;18.63;100.00;95178.63;4356960;32;20209;-57
2022/08/27 01:40:12;;;;;;;2.17;2.00;;;;;;;18.77;100.00;95186.25;4360525;32;20201;-58
2022/08/27 01:42:40;;;;;;;2.27;2.17;;;;;;;18.81;99.82;95190.56;4357272;32;20216;-57
2022/08/27 01:45:12;;;;;;;2.33;1.80;;;;;;;18.71;100.00;95193.78;4359013;32;20242;-58
2022/08/27 01:47:38;;;;;;;2.27;2.13;;;;;;;18.74;100.00;95192.31;4363696;32;20190;-57
2022/08/27 01:50:07;;;;;;;2.30;2.17;;;;;;;18.83;100.00;95192.91;4363975;32;20252;-56
2022/08/27 01:52:32;;;;;;;2.20;2.10;;;;;;;18.73;100.00;95190.75;4363596;32;20298;-57
2022/08/27 01:54:58;;;;;;;2.70;2.40;;;;;;;18.67;100.00;95190.25;4367723;32;20260;-57
2022/08/27 01:57:25;;;;;;;5.60;2.90;;;;;;;18.66;100.00;95193.28;4367252;32;20252;-57
2022/08/27 01:59:50;;;;;;;2.97;2.00;;;;;;;18.73;100.00;95193.44;4357892;32;20236;-58
2022/08/27 02:02:17;;;;;;;1.87;1.77;;;;;;;18.84;100.00;95192.56;4372288;32;20245;-56
2022/08/27 02:04:43;;;;;;;1.83;1.77;;;;;;;18.94;99.98;95188.56;4364247;32;20215;-58
2022/08/27 02:07:09;;;;;;;1.80;1.77;;;;;;;18.80;99.95;95194.41;4364740;32;20194;-58
2022/08/27 02:09:35;;;;;;;1.63;1.53;;;;;;;18.68;100.00;95197.19;4358835;32;20256;-57
2022/08/27 02:12:01;;;;;;;2.23;2.13;;;;;;;18.81;100.00;95193.28;4360682;32;20242;-58
2022/08/27 02:14:27;;;;;;;2.03;1.97;;;;;;;18.80;100.00;95193.63;4359460;32;20201;-57
2022/08/27 02:16:52;;;;;;;1.87;1.80;;;;;;;18.93;100.00;95195.06;4371104;32;20192;-57
2022/08/27 02:19:18;;;;;;;2.97;2.77;;;;;;;18.82;100.00;95185.97;4354150;32;20224;-56
2022/08/27 02:21:43;;;;;;;3.00;2.90;;;;;;;18.84;100.00;95187.19;4354382;32;20249;-57
2022/08/27 02:24:09;;;;;;;1.33;1.33;;;;;;;18.94;99.68;95177.81;4358420;32;20189;-58
2022/08/27 02:26:34;;;;;;;2.60;2.33;;;;;;;18.92;100.00;95174.69;4369141;32;20195;-57
2022/08/27 02:28:59;;;;;;;2.30;2.20;;;;;;;18.94;99.92;95177.81;4349292;32;20192;-56
2022/08/27 02:31:25;;;;;;;2.60;1.90;;;;;;;18.93;100.00;95180.84;4351606;32;20197;-57
2022/08/27 02:33:51;;;;;;;2.53;2.43;;;;;;;18.93;100.00;95180.84;4366695;32;20332;-58
2022/08/27 02:36:16;;;;;;;2.33;2.23;;;;;;;18.97;99.95;95173.63;4358586;32;20224;-56
2022/08/27 02:38:42;;;;;;;2.00;1.90;;;;;;;18.84;99.95;95176.44;4344814;32;20193;-57
2022/08/27 02:41:07;;;;;;;1.90;1.80;;;;;;;18.90;100.00;95170.81;4358867;32;20231;-57
2022/08/27 02:43:33;;;;;;;2.23;2.13;;;;;;;18.81;100.00;95173.66;4358989;32;20193;-57
2022/08/27 02:46:00;;;;;;;2.00;1.90;;;;;;;18.90;100.00;95174.28;4373906;32;20189;-58
2022/08/27 02:48:26;;;;;;;2.33;2.23;;;;;;;18.83;100.00;95169.50;4368624;32;20193;-57
2022/08/27 02:50:51;;;;;;;2.50;2.40;;;;;;;18.74;100.00;95171.59;4358263;32;20260;-56
2022/08/27 02:53:17;;;;;;;3.13;2.07;;;;;;;18.71;100.00;95166.91;4357874;32;20193;-57
2022/08/27 02:55:43;;;;;;;2.27;2.17;;;;;;;18.79;100.00;95165.94;4358984;32;20204;-57
2022/08/27 02:58:08;;;;;;;1.77;1.67;;;;;;;18.61;100.00;95162.06;4365105;32;20254;-58
2022/08/27 03:00:34;;;;;;;1.93;1.83;;;;;;;18.53;100.00;95161.09;4361362;32;20185;-57
2022/08/27 03:03:01;;;;;;;3.13;1.70;;;;;;;18.52;100.00;95156.84;4361205;32;20181;-56
2022/08/27 03:05:27;;;;;;;2.80;2.60;;;;;;;18.54;100.00;95164.56;4360620;32;20176;-57
2022/08/27 03:07:52;;;;;;;1.37;1.37;;;;;;;18.65;100.00;95171.00;4359686;32;20192;-57
2022/08/27 03:10:21;;;;;;;1.73;1.63;;;;;;;18.57;100.00;95171.94;4365104;32;20215;-55
2022/08/27 03:12:47;;;;;;;1.10;1.10;;;;;;;18.63;100.00;95164.41;4354247;32;20250;-57
2022/08/27 03:15:16;;;;;;;1.50;1.47;;;;;;;18.61;100.00;95169.34;4358995;32;20260;-55
2022/08/27 03:20:26;;;;;;;1.33;1.33;;;;;;;18.59;100.00;95175.06;4358975;32;20230;-56
2022/08/27 03:22:52;;;;;;;1.50;1.50;;;;;;;18.66;100.00;95177.94;4360537;32;20279;-57
2022/08/27 03:25:18;;;;;;;1.23;1.23;;;;;;;18.68;100.00;95181.06;4358259;32;20193;-56
2022/08/27 03:27:43;;;;;;;2.20;1.20;;;;;;;18.73;100.00;95177.31;4349962;32;20188;-55
2022/08/27 03:30:13;;;;;;;2.57;1.47;;;;;;;18.68;100.00;95177.59;4359151;32;20185;-56
2022/08/27 03:32:39;;;;;;;1.33;1.23;;;;;;;18.67;100.00;95184.09;4371737;32;20180;-57
2022/08/27 03:35:05;;;;;;;1.27;1.27;;;;;;;18.61;100.00;95186.25;4373021;32;20218;-57
2022/08/27 03:37:30;;;;;;;1.90;1.80;;;;;;;18.56;100.00;95183.78;4350615;32;20227;-58
2022/08/27 03:39:55;;;;;;;1.67;1.10;;;;;;;18.62;100.00;95187.03;4352333;32;20185;-58
2022/08/27 03:42:22;;;;;;;1.47;1.47;;;;;;;18.62;100.00;95176.28;4369312;32;20268;-57
2022/08/27 03:44:48;;;;;;;1.40;1.40;;;;;;;18.56;100.00;95183.78;4361595;32;20204;-57
2022/08/27 03:47:14;;;;;;;1.10;1.10;;;;;;;18.71;100.00;95190.31;4370419;32;20203;-58
2022/08/27 03:49:39;;;;;;;1.63;1.63;;;;;;;18.67;100.00;95184.87;4360656;32;20215;-57
2022/08/27 03:52:05;;;;;;;0.83;0.83;;;;;;;18.69;100.00;95189.91;4370462;32;20176;-57
2022/08/27 03:54:33;;;;;;;1.33;1.00;;;;;;;18.56;100.00;95178.44;4350116;32;20244;-56
2022/08/27 03:56:58;;;;;;;13.50;1.87;;;;;;;18.57;100.00;95179.97;4370879;32;20200;-56
2022/08/27 03:59:24;;;;;;;1.30;1.27;;;;;;;18.66;100.00;95177.16;4374824;32;20192;-56
2022/08/27 04:01:49;;;;;;;1.07;1.07;;;;;;;18.65;100.00;95175.59;4361842;32;20248;-56
2022/08/27 04:04:14;;;;;;;1.13;1.13;;;;;;;18.58;100.00;95170.78;4375043;32;20185;-55
2022/08/27 04:06:40;;;;;;;1.30;1.30;;;;;;;18.54;100.00;95170.72;4346651;32;20280;-57
2022/08/27 04:09:05;;;;;;;1.53;1.33;;;;;;;18.60;100.00;95175.84;4371330;32;20184;-55
2022/08/27 04:11:33;;;;;;;1.73;1.63;;;;;;;18.62;100.00;95181.66;4362683;32;20193;-57
2022/08/27 04:13:59;;;;;;;1.77;1.67;;;;;;;18.60;100.00;95183.91;4369124;32;20189;-57
2022/08/27 04:16:25;;;;;;;1.13;1.13;;;;;;;18.63;100.00;95178.63;4346397;32;20203;-57
2022/08/27 04:18:52;;;;;;;2.07;1.77;;;;;;;18.67;100.00;95184.09;4356737;32;20294;-58
2022/08/27 04:21:17;;;;;;;1.23;1.13;;;;;;;18.70;100.00;95186.88;4361645;32;20204;-58
2022/08/27 04:23:42;;;;;;;0.80;0.80;;;;;;;18.79;100.00;95186.69;4363563;32;20207;-57
2022/08/27 04:26:09;;;;;;;1.67;1.57;;;;;;;18.75;100.00;95185.81;4360803;32;20241;-58
2022/08/27 04:28:35;;;;;;;1.30;1.30;;;;;;;18.76;100.00;95182.78;4384384;32;20335;-58
2022/08/27 04:31:06;;;;;;;1.43;1.43;;;;;;;18.77;100.00;95183.56;4348875;32;20205;-57
2022/08/27 04:33:31;;;;;;;1.43;1.37;;;;;;;18.72;100.00;95191.87;4345871;32;20259;-54
2022/08/27 04:35:58;;;;;;;1.20;1.20;;;;;;;18.76;100.00;95195.44;4357019;32;20188;-56
2022/08/27 04:38:24;;;;;;;0.77;0.77;;;;;;;18.82;100.00;95194.06;4366495;32;20197;-58
2022/08/27 04:43:33;;;;;;;1.20;1.20;;;;;;;18.84;100.00;95189.09;4359022;32;20212;-57
2022/08/27 04:45:59;;;;;;;1.00;1.00;;;;;;;18.85;100.00;95193.34;4376084;32;20192;-55
2022/08/27 04:48:24;;;;;;;1.40;1.40;;;;;;;18.83;100.00;95195.59;4361175;32;20215;-56
2022/08/27 04:50:50;;;;;;;1.30;1.30;;;;;;;18.83;100.00;95190.22;4359428;32;20240;-55
2022/08/27 04:53:16;;;;;;;1.47;1.37;;;;;;;18.78;100.00;95187.81;4359667;32;20284;-58
2022/08/27 04:55:47;;;;;;;1.63;1.53;;;;;;;18.82;99.93;95191.37;4346598;32;20239;-55
2022/08/27 04:58:14;;;;;;;1.30;1.23;;;;;;;18.63;100.00;95199.34;4372783;32;20223;-58
2022/08/27 05:00:48;;;;;;;1.07;1.07;;;;;;;18.73;100.00;95198.81;4348696;32;20188;-55
2022/08/27 05:03:16;;;;;;;1.53;1.53;;;;;;;18.75;100.00;95200.03;4358634;32;20196;-57
2022/08/27 05:05:43;;;;;;;1.47;1.40;;;;;;;18.79;100.00;95198.22;4366592;32;20180;-57
2022/08/27 05:08:11;;;;;;;1.73;1.53;;;;;;;18.79;100.00;95208.19;4359326;32;20207;-58
2022/08/27 05:10:48;;;;;;;1.60;1.60;;;;;;;18.82;100.00;95202.91;4370010;32;20189;-58
2022/08/27 05:13:14;;;;;;;0.97;0.97;;;;;;;18.82;99.94;95208.28;4371129;32;20188;-58
2022/08/27 05:15:40;;;;;;;1.77;1.67;;;;;;;18.78;100.00;95209.31;4358728;32;20188;-57
2022/08/27 05:18:07;;;;;;;1.20;1.20;;;;;;;18.76;99.96;95206.19;4361911;32;20214;-59
2022/08/27 05:20:40;;;;;;;1.80;1.70;;;;;;;18.68;100.00;95207.16;4350767;32;20201;-58
2022/08/27 05:23:05;;;;;;;1.83;1.73;;;;;;;18.65;100.00;95202.47;4365812;32;20203;-58
2022/08/27 05:25:31;;;;;;;1.27;1.27;;;;;;;18.70;100.00;95200.31;4347026;32;20208;-59
2022/08/27 05:27:56;;;;;;;1.30;1.30;;;;;;;18.74;100.00;95205.75;4370881;32;20193;-58
2022/08/27 05:30:21;;;;;;;1.37;1.37;;;;;;;18.77;100.00;95199.69;4361666;32;20190;-58
2022/08/27 05:32:47;;;;;;;2.77;2.20;;;;;;;18.73;100.00;95198.81;4359894;32;20197;-58
2022/08/27 05:35:12;;;;;;;1.73;1.63;;;;;;;18.77;100.00;95194.31;4338112;32;20196;-56
2022/08/27 05:37:38;;;;;;;1.60;1.60;;;;;;;18.84;100.00;95200.63;4360594;32;20192;-56
2022/08/27 05:40:04;;;;;;;1.23;1.23;;;;;;;18.85;100.00;95199.50;4363822;32;20181;-56
2022/08/27 05:42:31;;;;;;;1.80;1.70;;;;;;;18.92;100.00;95201.56;4363349;32;20253;-56
2022/08/27 05:44:57;;;;;;;1.43;1.33;;;;;;;18.85;100.00;95196.81;4356275;32;20177;-57
2022/08/27 05:47:22;;;;;;;1.13;1.13;;;;;;;18.79;100.00;95202.81;4376001;32;20195;-54
2022/08/27 05:49:52;;;;;;;1.80;1.70;;;;;;;18.77;100.00;95197.78;4359107;32;20209;-57
2022/08/27 05:52:17;;;;;;;1.53;1.43;;;;;;;18.91;100.00;95197.34;4375491;32;20185;-56
2022/08/27 05:54:43;;;;;;;3.50;1.60;;;;;;;18.87;100.00;95201.84;4378783;32;20228;-56
2022/08/27 05:57:08;;;;;;;1.37;1.37;;;;;;;18.80;100.00;95204.38;4358573;32;20231;-56
2022/08/27 06:02:19;;;;;;;2.40;1.83;;;;;;;18.99;100.00;95201.75;4365410;32;20266;-56
2022/08/27 06:04:45;;;;;;;0.80;0.80;;;;;;;19.06;100.00;95204.59;4362769;32;20197;-58
2022/08/27 06:07:11;;;;;;;1.53;1.47;;;;;;;19.10;100.00;95202.78;4369058;32;20282;-56
2022/08/27 06:09:38;;;;;;;1.90;1.63;;;;;;;19.13;100.00;95207.44;4368471;32;20185;-57
2022/08/27 06:12:04;;;;;;;1.43;1.33;;;;;;;19.20;99.88;95207.59;4368690;32;20265;-57
2022/08/27 06:14:29;;;;;;;0.90;0.90;;;;;;;19.27;99.24;95211.59;4356920;32;20230;-57
2022/08/27 06:16:55;;;;;;;0.87;0.87;;;;;;;19.26;98.41;95207.34;4360283;32;20182;-56
2022/08/27 06:19:21;;;;;;;1.07;1.07;;;;;;;19.26;98.03;95210.81;4368551;32;23038;-57
2022/08/27 06:21:47;;;;;;;1.03;1.03;;;;;;;19.17;97.67;95208.28;4361070;32;20177;-56
2022/08/27 06:24:12;;;;;;;0.57;0.57;;;;;;;19.19;97.29;95213.31;4382364;32;20295;-57
2022/08/27 06:26:43;;;;;;;0.93;0.93;;;;;;;19.18;97.25;95209.84;4369584;32;20161;-55
2022/08/27 06:29:09;;;;;;;0.90;0.90;;;;;;;19.07;97.37;95210.75;4367002;32;20232;-55
2022/08/27 06:31:34;;;;;;;1.23;1.13;;;;;;;19.12;97.31;95205.88;4373308;32;20181;-54
2022/08/27 06:34:01;;;;;;;0.97;0.97;;;;;;;19.13;96.98;95202.06;4361593;32;20199;-55
2022/08/27 06:36:28;;;;;;;1.27;0.97;;;;;;;19.01;97.96;95202.19;4370554;32;20193;-58
2022/08/27 06:38:55;;;;;;;1.30;1.30;;;;;;;19.11;97.94;95204.34;4357763;32;20182;-56
2022/08/27 06:41:25;;;;;;;1.23;1.20;;;;;;;19.19;97.37;95203.34;4357825;32;22007;-56
2022/08/27 06:43:52;;;;;;;1.00;1.00;;;;;;;19.23;97.63;95206.13;4345680;32;20242;-55
2022/08/27 06:46:21;;;;;;;2.50;1.60;;;;;;;19.23;98.32;95206.91;4353747;32;20246;-56
2022/08/27 06:48:47;;;;;;;1.20;1.20;;;;;;;19.34;97.81;95215.19;4367099;32;20188;-56
2022/08/27 06:51:19;;;;;;;1.33;0.97;;;;;;;19.40;97.76;95211.09;4358926;32;20196;-57
2022/08/27 06:53:46;;;;;;;0.97;0.97;;;;;;;19.58;96.85;95214.19;4373551;32;20203;-55
2022/08/27 06:56:16;;;;;;;2.43;2.23;;;;;;;19.46;96.56;95208.94;4346166;32;20307;-54
2022/08/27 06:58:42;;;;;;;1.80;1.70;;;;;;;19.39;96.61;95206.84;4359116;32;20323;-55
2022/08/27 07:01:21;;;;;;;1.30;1.30;;;;;;;19.40;96.92;95210.31;4363150;32;20173;-55
2022/08/27 07:03:46;;;;;;;1.47;1.37;;;;;;;19.40;97.02;95213.78;4364836;32;20180;-57
2022/08/27 07:06:14;;;;;;;2.73;2.00;;;;;;;19.49;96.59;95208.22;4358081;32;20266;-57
2022/08/27 07:08:40;;;;;;;4.57;2.33;;;;;;;19.56;96.22;95211.84;4368492;32;20180;-56
2022/08/27 07:11:07;;;;;;;1.00;1.00;;;;;;;19.65;96.02;95219.75;4372367;32;20216;-56
2022/08/27 07:13:33;;;;;;;1.17;1.07;;;;;;;19.57;96.31;95220.72;4347665;32;20181;-54
2022/08/27 07:16:06;;;;;;;1.53;1.43;;;;;;;19.48;96.73;95217.44;4351529;32;20242;-56
2022/08/27 07:18:32;;;;;;;7.03;2.53;;;;;;;19.53;96.98;95214.50;4371530;32;20181;-63
2022/08/27 07:20:57;;;;;;;2.60;2.40;;;;;;;19.49;97.29;95214.37;4355295;32;20200;-62
2022/08/27 07:23:24;;;;;;;1.60;1.60;;;;;;;19.37;97.50;95217.19;4369910;32;20203;-62
2022/08/27 07:25:49;;;;;;;1.83;1.70;;;;;;;19.43;97.54;95218.47;4363246;32;20249;-61
2022/08/27 07:28:15;;;;;;;1.40;1.40;;;;;;;19.43;97.10;95218.47;4365880;32;20239;-61
2022/08/27 07:30:40;;;;;;;2.77;2.50;;;;;;;19.43;95.47;95228.47;4359843;32;20208;-62
2022/08/27 07:33:06;;;;;;;3.13;2.50;;;;;;;19.35;96.01;95227.50;4365478;32;20195;-62
2022/08/27 07:35:31;;;;;;;1.90;1.80;;;;;;;19.33;96.46;95226.34;4348287;32;20189;-61
2022/08/27 07:37:57;;;;;;;2.00;1.77;;;;;;;19.23;97.05;95230.34;4346744;32;20215;-61
2022/08/27 07:40:23;;;;;;;5.47;2.17;;;;;;;19.22;97.44;95232.25;4356537;32;20276;-62
2022/08/27 07:45:54;;;;;;;1.30;1.30;;;;;;;19.34;95.92;95239.41;4315702;33;20272;-62
2022/08/27 07:48:22;;;;;;;2.73;2.20;;;;;;;19.31;96.40;95242.03;4298232;33;20256;-61
2022/08/27 07:50:48;;;;;;;0.97;0.97;;;;;;;19.43;96.23;95241.91;4335393;32;20193;-61
2022/08/27 07:53:13;;;;;;;2.40;2.30;;;;;;;19.49;96.13;95243.22;4374845;32;20203;-62
2022/08/27 07:55:39;;;;;;;1.47;1.47;;;;;;;19.56;96.16;95240.69;4350658;32;20199;-62
2022/08/27 07:58:05;;;;;;;0.77;0.77;;;;;;;19.51;95.93;95243.66;4355699;32;20182;-62
2022/08/27 08:00:31;;;;;;;1.80;1.80;;;;;;;19.65;95.56;95243.97;4375271;32;20185;-62
2022/08/27 08:02:57;;;;;;;3.00;2.80;;;;;;;19.64;95.67;95247.00;4364074;32;20215;-61
2022/08/27 08:05:22;;;;;;;2.20;2.10;;;;;;;19.75;95.71;95251.47;4361009;32;20363;-62
2022/08/27 08:07:50;;;;;;;2.00;1.90;;;;;;;19.77;95.36;95251.91;4371902;32;20231;-61
2022/08/27 08:10:16;;;;;;;1.57;1.47;;;;;;;19.74;94.34;95252.63;4365793;32;20219;-61
2022/08/27 08:12:41;;;;;;;1.17;1.17;;;;;;;19.75;94.50;95253.37;4363602;32;20252;-62
2022/08/27 08:15:10;;;;;;;1.80;1.53;;;;;;;19.95;94.77;95256.88;4386852;32;20199;-62
2022/08/27 08:17:38;;;;;;;1.40;1.40;;;;;;;19.80;95.01;95245.81;4364506;32;20185;-62
2022/08/27 08:20:06;;;;;;;1.73;1.63;;;;;;;19.84;95.23;95259.34;4361701;32;20185;-62
2022/08/27 08:22:32;;;;;;;1.37;1.30;;;;;;;19.92;95.48;95253.00;4354506;32;20188;-61
2022/08/27 08:24:57;;;;;;;1.60;1.50;;;;;;;20.04;94.73;95260.91;4374350;32;20201;-61
2022/08/27 08:27:22;;;;;;;1.47;1.37;;;;;;;19.92;94.46;95262.97;4339526;32;20199;-59
2022/08/27 08:29:49;;;;;;;0.87;0.87;;;;;;;20.03;94.46;95261.25;4366986;32;20195;-58
2022/08/27 08:32:16;;;;;;;1.47;1.43;;;;;;;20.18;93.81;95271.16;4347830;32;20192;-59
2022/08/27 08:34:41;;;;;;;1.50;1.40;;;;;;;19.99;94.17;95268.50;4358298;32;20220;-59
2022/08/27 08:37:07;;;;;;;1.70;1.60;;;;;;;20.02;94.52;95271.25;4360326;32;20193;-59
2022/08/27 08:39:35;;;;;;;1.90;1.80;;;;;;;20.03;95.01;95270.13;4371206;32;20185;-60
2022/08/27 08:42:03;;;;;;;2.57;1.43;;;;;;;20.06;94.55;95272.12;4367200;32;20273;-59
2022/08/27 08:44:41;;;;;;;1.50;1.47;;;;;;;20.04;94.73;95273.59;4365974;32;20201;-59
2022/08/27 08:47:13;;;;;;;1.20;1.20;;;;;;;20.04;93.85;95270.91;4345594;32;20307;-58
2022/08/27 08:49:56;;;;;;;1.80;1.70;;;;;;;20.03;93.66;95274.72;4367938;32;20185;-59
2022/08/27 08:52:34;;;;;;;2.17;1.73;;;;;;;19.83;94.24;95276.63;4358799;32;20209;-58
2022/08/27 08:55:09;;;;;;;1.00;1.00;;;;;;;19.84;94.00;95275.50;4358148;32;20200;-59
2022/08/27 08:57:41;;;;;;;1.63;1.57;;;;;;;19.82;94.54;95273.16;4357405;32;20263;-59
2022/08/27 09:00:11;;;;;;;1.00;1.00;;;;;;;19.90;94.20;95277.56;4366167;32;20272;-59
2022/08/27 09:02:39;;;;;;;1.17;1.17;;;;;;;19.90;94.02;95272.19;4356526;32;20248;-59
2022/08/27 09:05:07;;;;;;;0.60;0.60;;;;;;;19.96;94.53;95269.19;4372611;32;20212;-59
2022/08/27 09:07:48;;;;;;;1.73;1.63;;;;;;;20.06;94.26;95274.03;4372456;32;20251;-60
2022/08/27 09:10:32;;;;;;;1.43;1.43;;;;;;;20.15;94.57;95271.91;4344004;32;20246;-59
2022/08/27 09:13:02;;;;;;;1.67;1.57;;;;;;;20.26;93.97;95278.28;4360451;32;20200;-59
2022/08/27 09:15:32;;;;;;;0.93;0.93;;;;;;;20.34;92.41;95269.19;4362296;32;20190;-59
2022/08/27 09:18:11;;;;;;;0.83;0.83;;;;;;;20.43;92.18;95274.38;4359939;32;20193;-59
2022/08/27 09:20:37;;;;;;;0.60;0.60;;;;;;;20.51;92.12;95276.06;4358580;32;20247;-59
2022/08/27 09:23:32;;;;;;;1.63;1.53;;;;;;;20.57;91.01;95267.34;4348145;32;20199;-59
2022/08/27 09:25:57;;;;;;;1.00;1.00;;;;;;;20.62;90.30;95268.16;4353874;32;20251;-58
2022/08/27 09:31:16;;;;;;;1.10;1.10;;;;;;;20.68;91.01;95269.44;4365924;32;20203;-58
2022/08/27 09:33:42;;;;;;;1.20;1.20;;;;;;;20.86;90.67;95274.00;4359074;32;20289;-59
2022/08/27 09:36:10;;;;;;;1.20;1.20;;;;;;;20.82;90.27;95270.44;4345339;32;20181;-58
2022/08/27 09:38:39;;;;;;;1.60;1.60;;;;;;;20.75;89.44;95273.03;4349434;32;20197;-59
2022/08/27 09:41:08;;;;;;;0.80;0.80;;;;;;;20.81;88.18;95273.50;4360380;32;20185;-59
2022/08/27 09:43:35;;;;;;;0.80;0.80;;;;;;;20.94;86.52;95274.91;4351541;32;20200;-59
2022/08/27 09:46:20;;;;;;;1.50;1.40;;;;;;;20.79;87.45;95273.88;4370318;32;20181;-59
2022/08/27 09:48:45;;;;;;;1.50;1.50;;;;;;;20.74;88.59;95266.09;4359809;32;20252;-59
2022/08/27 09:51:18;;;;;;;1.60;1.50;;;;;;;20.67;88.99;95267.87;4372382;32;20711;-58
2022/08/27 09:53:59;;;;;;;1.77;1.67;;;;;;;20.78;89.37;95266.16;4373703;32;20253;-59
2022/08/27 09:56:32;;;;;;;1.67;1.67;;;;;;;20.78;87.96;95266.16;4358793;32;20185;-59
2022/08/27 09:59:35;;;;;;;0.80;0.80;;;;;;;20.73;89.25;95263.75;4365268;32;20185;-59
2022/08/27 10:02:13;;;;;;;2.27;2.17;;;;;;;20.78;89.25;95260.75;4346804;32;20203;-59
2022/08/27 10:04:43;;;;;;;1.73;1.63;;;;;;;20.87;88.71;95253.97;4362244;32;20176;-59
2022/08/27 10:07:33;;;;;;;1.77;1.67;;;;;;;20.97;88.48;95262.63;4358072;32;20203;-58
2022/08/27 10:10:16;;;;;;;0.87;0.87;;;;;;;21.04;86.81;95258.09;4357722;32;20197;-58
2022/08/27 10:13:00;;;;;;;2.07;1.17;;;;;;;21.18;86.36;95257.56;4356830;32;20224;-58
2022/08/27 10:15:36;;;;;;;0.97;0.97;;;;;;;21.24;85.83;95248.81;4368266;32;20294;-58
2022/08/27 10:18:10;;;;;;;1.87;1.77;;;;;;;21.23;85.90;95244.53;4356660;32;20192;-58
2022/08/27 10:20:46;;;;;;;1.10;1.10;;;;;;;21.28;85.33;95251.56;4354964;32;20247;-58
2022/08/27 10:23:32;;;;;;;0.70;0.70;;;;;;;21.40;84.31;95253.28;4344164;32;20252;-58
2022/08/27 10:26:13;;;;;;;2.37;2.17;;;;;;;21.37;84.73;95248.62;4359128;32;20195;-58
2022/08/27 10:28:57;;;;;;;1.40;1.30;;;;;;;21.37;83.21;95235.13;4351192;32;20189;-58
2022/08/27 10:31:37;;;;;;;0.87;0.87;;;;;;;21.30;84.78;95237.69;4363057;32;20272;-58
2022/08/27 10:34:03;;;;;;;1.07;1.07;;;;;;;21.24;83.35;95248.81;4349863;32;20207;-59
2022/08/27 10:36:31;;;;;;;0.87;0.87;;;;;;;21.29;84.93;95241.53;4380431;32;20173;-59
2022/08/27 10:39:36;;;;;;;1.10;1.10;;;;;;;21.32;84.04;95243.53;4342794;32;20203;-57
2022/08/27 10:42:25;;;;;;;1.47;1.37;;;;;;;21.27;84.50;95239.19;4326437;32;20255;-59
2022/08/27 10:45:03;;;;;;;3.97;2.53;;;;;;;21.44;84.68;95241.38;4360915;32;20229;-58
2022/08/27 10:47:43;;;;;;;1.13;1.03;;;;;;;21.47;84.61;95242.56;4358917;32;20301;-58
2022/08/27 10:50:30;;;;;;;1.57;1.47;;;;;;;21.57;84.80;95244.66;4368442;32;20184;-59
2022/08/27 10:53:07;;;;;;;0.70;0.70;;;;;;;21.62;84.66;95239.69;4363694;32;20231;-58
2022/08/27 10:55:39;;;;;;;1.00;1.00;;;;;;;21.65;82.48;95232.00;4363399;32;20227;-59
2022/08/27 10:58:33;;;;;;;0.67;0.67;;;;;;;21.68;82.03;95231.28;4360728;32;20207;-59
2022/08/27 11:01:05;;;;;;;1.20;1.20;;;;;;;21.69;82.18;95232.84;4366974;32;20176;-58
2022/08/27 11:04:09;;;;;;;1.73;1.63;;;;;;;21.78;81.87;95227.94;4362486;32;20232;-58
2022/08/27 11:06:42;;;;;;;0.70;0.70;;;;;;;21.67;80.81;95225.09;4374272;32;20188;-59
2022/08/27 11:09:20;;;;;;;1.40;1.07;;;;;;;21.70;81.72;95218.97;4375919;32;20184;-59
2022/08/27 11:11:50;;;;;;;1.40;1.30;;;;;;;21.76;81.74;95211.34;4374257;32;20200;-58
2022/08/27 11:14:27;;;;;;;0.60;0.60;;;;;;;21.80;79.24;95217.56;4360937;32;20169;-58
2022/08/27 11:16:58;;;;;;;1.20;1.20;;;;;;;21.69;78.69;95217.41;4358684;32;20295;-58
2022/08/27 11:19:42;;;;;;;4.07;1.03;;;;;;;21.75;79.28;95213.25;4348953;32;20197;-59
2022/08/27 11:22:15;;;;;;;1.60;1.50;;;;;;;21.76;79.99;95211.34;4360675;32;20242;-58
2022/08/27 11:24:48;;;;;;;1.47;1.47;;;;;;;22.01;77.42;95217.06;4353620;32;20176;-59
2022/08/27 11:27:18;;;;;;;1.83;1.27;;;;;;;22.06;78.30;95211.31;4362248;32;20256;-58
2022/08/27 11:29:58;;;;;;;1.43;1.43;;;;;;;22.05;77.86;95224.03;4374907;32;20245;-58
2022/08/27 11:32:48;;;;;;;0.93;0.93;;;;;;;22.01;77.05;95211.66;4368530;32;20189;-58
2022/08/27 11:35:26;;;;;;;1.47;1.37;;;;;;;22.10;77.30;95217.53;4369454;32;20185;-58
2022/08/27 11:38:26;;;;;;;1.70;1.60;;;;;;;22.07;77.59;95208.25;4347243;32;20189;-58
2022/08/27 11:41:09;;;;;;;0.97;0.97;;;;;;;22.20;76.82;95214.97;4357752;32;20184;-58
2022/08/27 11:43:36;;;;;;;1.47;1.37;;;;;;;22.16;77.38;95207.97;4357771;32;20298;-58
2022/08/27 11:46:07;;;;;;;1.57;1.57;;;;;;;22.26;77.32;95210.75;4348907;32;20193;-58
2022/08/27 11:48:40;;;;;;;1.57;1.57;;;;;;;22.29;76.35;95206.53;4344182;32;20188;-60
2022/08/27 11:51:09;;;;;;;1.73;1.63;;;;;;;22.24;76.03;95213.06;4361608;32;20197;-59
2022/08/27 11:53:38;;;;;;;0.80;0.80;;;;;;;22.16;75.48;95207.97;4352441;32;20176;-59